Time;durP1;ratioP1;P1;durP2;ratioP2;P2;SDS_P1;SDS_P2;PMS_P1;PMS_P2;Temp;Humidity;BMP_temperature;BMP_pressure;BME280_temperature;BME280_humidity;BME280_pressure;Samples;Min_cycle;Max_cycle;Signal;HPM_P1;HPM_P2
2022/12/04 00:02:04;;;;;;;16.50;7.53;;;;;;;;;;4934001;29;20413;-74
2022/12/04 00:04:30;;;;;;;21.05;7.50;;;;;;;;;;4933155;29;20028;-75
2022/12/04 00:06:56;;;;;;;12.95;6.43;;;3.90;99.90;;;;;;4933404;29;20028;-75
2022/12/04 00:09:22;;;;;;;18.85;7.50;;;4.10;99.90;;;;;;4933379;29;20115;-74
2022/12/04 00:11:48;;;;;;;15.35;6.90;;;;;;;;;;4933215;29;20139;-74
2022/12/04 00:14:14;;;;;;;16.85;6.38;;;;;;;;;;4932686;29;20031;-74
2022/12/04 00:16:39;;;;;;;21.08;7.50;;;3.90;99.90;;;;;;4933291;29;20028;-74
2022/12/04 00:19:05;;;;;;;18.73;6.50;;;3.70;99.90;;;;;;4931349;29;20123;-74
2022/12/04 00:21:30;;;;;;;17.80;6.43;;;3.90;99.90;;;;;;4933132;29;20039;-75
2022/12/04 00:23:56;;;;;;;15.45;7.35;;;;;;;;;;4932662;29;20024;-74
2022/12/04 00:26:25;;;;;;;14.02;6.22;;;4.00;99.90;;;;;;4932725;29;20031;-75
2022/12/04 00:28:52;;;;;;;14.73;6.45;;;4.00;99.90;;;;;;4932948;29;20059;-75
2022/12/04 00:31:20;;;;;;;12.75;6.85;;;4.00;99.90;;;;;;4933009;29;20502;-74
2022/12/04 00:33:46;;;;;;;13.25;5.13;;;;;;;;;;4932769;29;20063;-75
2022/12/04 00:36:14;;;;;;;12.65;5.03;;;3.90;99.90;;;;;;4932889;29;20494;-75
2022/12/04 00:38:41;;;;;;;11.70;4.90;;;3.90;99.90;;;;;;4932708;29;20103;-74
2022/12/04 00:41:12;;;;;;;17.17;6.28;;;3.70;99.90;;;;;;4932901;29;20042;-74
2022/12/04 00:43:38;;;;;;;11.00;4.55;;;;;;;;;;4932003;29;20035;-75
2022/12/04 00:46:04;;;;;;;12.52;5.35;;;;;;;;;;4932869;29;20027;-75
2022/12/04 00:48:30;;;;;;;14.43;7.10;;;4.10;99.90;;;;;;4932700;29;20067;-75
2022/12/04 00:51:01;;;;;;;17.42;6.22;;;3.80;99.90;;;;;;4932459;29;20484;-74
2022/12/04 00:53:27;;;;;;;12.70;5.13;;;;;;;;;;4932123;29;20074;-74
2022/12/04 00:55:53;;;;;;;11.77;5.40;;;;;;;;;;4932538;29;20456;-74
2022/12/04 00:58:19;;;;;;;13.75;5.65;;;;;;;;;;4931882;29;20051;-74
2022/12/04 01:00:45;;;;;;;13.70;6.30;;;;;;;;;;4932426;29;20094;-74
2022/12/04 01:03:10;;;;;;;13.48;5.50;;;;;;;;;;4932070;29;20067;-74
2022/12/04 01:05:41;;;;;;;13.32;5.57;;;3.80;99.90;;;;;;4932246;29;20031;-74
2022/12/04 01:08:07;;;;;;;8.73;5.45;;;;;;;;;;4931976;29;20098;-74
2022/12/04 01:10:33;;;;;;;8.10;3.45;;;3.70;99.90;;;;;;4932184;29;20461;-74
2022/12/04 01:12:59;;;;;;;11.10;5.20;;;4.10;99.90;;;;;;4931885;29;20027;-75
2022/12/04 01:15:25;;;;;;;7.07;4.28;;;;;;;;;;4931852;29;20031;-74
2022/12/04 01:17:51;;;;;;;8.60;4.38;;;;;;;;;;4931770;29;20031;-74
2022/12/04 01:20:17;;;;;;;8.23;3.78;;;;;;;;;;4932074;29;20409;-74
2022/12/04 01:22:43;;;;;;;9.18;4.57;;;;;;;;;;4931655;29;20098;-74
2022/12/04 01:25:08;;;;;;;8.73;3.80;;;3.50;99.90;;;;;;4931961;29;20042;-74
2022/12/04 01:27:34;;;;;;;9.25;4.45;;;3.60;99.90;;;;;;4931908;29;20046;-75
2022/12/04 01:30:00;;;;;;;10.38;4.43;;;3.50;99.90;;;;;;4931893;29;20044;-74
2022/12/04 01:32:26;;;;;;;7.90;3.95;;;;;;;;;;4931616;29;20052;-74
2022/12/04 01:34:52;;;;;;;10.55;3.75;;;;;;;;;;4931670;29;20525;-75
2022/12/04 01:37:18;;;;;;;9.02;5.35;;;;;;;;;;4931759;29;20023;-74
2022/12/04 01:39:44;;;;;;;11.25;4.70;;;;;;;;;;4931566;29;20405;-75
2022/12/04 01:42:14;;;;;;;9.32;3.95;;;3.60;99.90;;;;;;4934652;29;20103;-74
2022/12/04 01:44:43;;;;;;;8.68;5.32;;;2.90;99.90;;;;;;4939075;28;20031;-74
2022/12/04 01:47:09;;;;;;;9.18;4.30;;;3.50;99.90;;;;;;4931559;29;20028;-74
2022/12/04 01:49:46;;;;;;;7.40;4.15;;;3.50;99.90;;;;;;4931500;29;20039;-74
2022/12/04 01:52:20;;;;;;;11.43;4.45;;;3.50;99.90;;;;;;4931306;29;20517;-75
2022/12/04 01:54:50;;;;;;;6.80;3.47;;;3.50;99.90;;;;;;4931358;29;20028;-75
2022/12/04 01:57:18;;;;;;;8.50;4.05;;;3.60;99.90;;;;;;4931687;29;20027;-75
2022/12/04 02:00:09;;;;;;;9.60;3.45;;;3.40;99.90;;;;;;4931469;29;20027;-74
2022/12/04 02:02:41;;;;;;;4.57;3.17;;;3.50;99.90;;;;;;4928655;28;20118;-74
2022/12/04 02:05:10;;;;;;;8.15;3.17;;;3.50;99.90;;;;;;4931405;29;20024;-74
2022/12/04 02:07:37;;;;;;;7.50;3.88;;;3.60;99.90;;;;;;4931030;29;20556;-74
2022/12/04 02:10:05;;;;;;;9.05;3.25;;;4.10;99.90;;;;;;4924822;29;20114;-75
2022/12/04 02:13:06;;;;;;;7.95;3.10;;;3.50;99.90;;;;;;4931346;29;20118;-75
2022/12/04 02:15:56;;;;;;;8.00;3.20;;;3.60;99.90;;;;;;4931357;29;20035;-75
2022/12/04 02:18:33;;;;;;;11.00;3.33;;;3.30;99.90;;;;;;4930979;29;20037;-75
2022/12/04 02:20:58;;;;;;;9.00;3.35;;;4.00;99.90;;;;;;4931026;29;20095;-74
2022/12/04 02:23:45;;;;;;;7.15;3.15;;;3.50;99.90;;;;;;4935123;29;20035;-74
2022/12/04 02:26:11;;;;;;;7.53;3.85;;;;;;;;;;4962577;28;20520;-75
2022/12/04 02:28:54;;;;;;;4.30;3.22;;;3.50;99.90;;;;;;4927661;29;20032;-74
2022/12/04 02:31:29;;;;;;;8.20;3.22;;;3.30;99.90;;;;;;4935524;29;20116;-75
2022/12/04 02:34:27;;;;;;;10.15;3.50;;;3.50;99.90;;;;;;4935338;29;20051;-74
2022/12/04 02:37:03;;;;;;;3.80;3.13;;;3.50;99.90;;;;;;4935176;29;20094;-74
2022/12/04 02:39:38;;;;;;;4.50;2.97;;;3.50;99.90;;;;;;4935719;29;20035;-74
2022/12/04 02:42:12;;;;;;;6.18;3.30;;;3.50;99.90;;;;;;4934958;29;20058;-75
2022/12/04 02:44:43;;;;;;;12.52;4.53;;;3.50;99.90;;;;;;4934589;29;20032;-75
2022/12/04 02:47:13;;;;;;;6.15;2.63;;;3.60;99.90;;;;;;4934877;29;20031;-74
2022/12/04 02:49:49;;;;;;;3.03;2.33;;;3.50;99.90;;;;;;4934461;29;20107;-74
2022/12/04 02:52:19;;;;;;;3.85;3.33;;;3.50;99.90;;;;;;4935040;29;20087;-75
2022/12/04 02:54:53;;;;;;;7.57;2.92;;;3.50;99.90;;;;;;4934607;29;20039;-74
2022/12/04 02:57:27;;;;;;;6.63;3.97;;;3.40;99.90;;;;;;4934698;29;20067;-75
2022/12/04 02:59:55;;;;;;;6.07;3.67;;;3.50;99.90;;;;;;4935184;29;20031;-74
2022/12/04 03:02:47;;;;;;;9.52;3.83;;;3.50;99.90;;;;;;4932774;29;20038;-74
2022/12/04 03:05:17;;;;;;;7.57;3.78;;;3.50;99.90;;;;;;4927230;29;20028;-74
2022/12/04 03:07:51;;;;;;;4.07;2.35;;;3.60;99.90;;;;;;4934751;29;20024;-75
2022/12/04 03:10:23;;;;;;;10.07;3.15;;;3.50;99.90;;;;;;4934541;29;20043;-75
2022/12/04 03:13:03;;;;;;;7.32;3.10;;;3.50;99.90;;;;;;4934476;29;20576;-74
2022/12/04 03:15:44;;;;;;;6.28;3.60;;;3.80;99.90;;;;;;4933288;29;20110;-75
2022/12/04 03:18:36;;;;;;;8.15;3.40;;;3.30;99.90;;;;;;4934256;29;20024;-74
2022/12/04 03:21:06;;;;;;;5.47;3.13;;;3.40;99.90;;;;;;4934273;29;20122;-74
2022/12/04 03:23:50;;;;;;;8.40;3.50;;;3.40;99.90;;;;;;4933869;29;20078;-74
2022/12/04 03:26:30;;;;;;;9.25;4.45;;;3.50;99.90;;;;;;4934070;29;20135;-75
2022/12/04 03:29:14;;;;;;;8.20;4.22;;;3.50;99.90;;;;;;4933969;29;20076;-75
2022/12/04 03:31:44;;;;;;;6.95;3.28;;;3.40;99.90;;;;;;4933879;29;20048;-75
2022/12/04 03:34:14;;;;;;;11.95;4.85;;;3.50;99.90;;;;;;4932475;29;20158;-75
2022/12/04 03:36:48;;;;;;;6.65;4.10;;;3.40;99.90;;;;;;4936489;29;20039;-74
2022/12/04 03:39:29;;;;;;;15.48;5.45;;;3.50;99.90;;;;;;4933768;29;20035;-74
2022/12/04 03:42:05;;;;;;;8.90;5.25;;;3.50;99.90;;;;;;4933872;29;20062;-74
2022/12/04 03:44:53;;;;;;;13.32;4.82;;;3.50;99.90;;;;;;4933348;29;20406;-74
2022/12/04 03:47:33;;;;;;;8.27;5.18;;;3.50;99.90;;;;;;4933842;29;20379;-75
2022/12/04 03:50:12;;;;;;;7.05;4.57;;;3.50;99.90;;;;;;4964136;28;20481;-74
2022/12/04 03:53:00;;;;;;;14.40;6.07;;;3.50;99.90;;;;;;4933423;29;20051;-74
2022/12/04 03:55:44;;;;;;;12.63;4.82;;;3.50;99.90;;;;;;4933614;29;20020;-74
2022/12/04 03:58:15;;;;;;;11.75;4.00;;;3.20;99.90;;;;;;4933798;29;20107;-74
2022/12/04 04:00:43;;;;;;;11.10;3.85;;;4.00;99.90;;;;;;4932110;29;20047;-74
2022/12/04 04:03:19;;;;;;;13.75;5.10;;;3.90;99.90;;;;;;4933648;29;20032;-75
2022/12/04 04:05:49;;;;;;;14.38;5.35;;;3.30;99.90;;;;;;4933569;29;20050;-74
2022/12/04 04:08:26;;;;;;;12.45;6.00;;;3.40;99.90;;;;;;4933360;29;20027;-74
2022/12/04 04:10:55;;;;;;;16.33;6.13;;;3.30;99.90;;;;;;4933589;29;20036;-74
2022/12/04 04:24:43;;;;;;;14.32;5.07;;;3.30;99.90;;;;;;4933157;29;20030;-74
2022/12/04 04:27:09;;;;;;;15.75;6.13;;;3.80;99.90;;;;;;4932992;29;20058;-74
2022/12/04 04:29:35;;;;;;;14.93;5.57;;;;;;;;;;4932890;29;21908;-75
2022/12/04 04:32:28;;;;;;;11.80;4.90;;;3.30;99.90;;;;;;4932591;29;20027;-75
2022/12/04 04:35:08;;;;;;;9.95;5.28;;;3.20;99.90;;;;;;4932590;29;20031;-74
2022/12/04 04:38:02;;;;;;;9.68;5.38;;;2.90;99.90;;;;;;4924363;29;20036;-74
2022/12/04 04:40:36;;;;;;;10.65;4.90;;;3.10;99.90;;;;;;4921735;29;20024;-74
2022/12/04 04:43:02;;;;;;;15.95;6.43;;;;;;;;;;4932407;29;20036;-74
2022/12/04 04:45:57;;;;;;;12.57;5.72;;;3.20;99.90;;;;;;4931679;29;20039;-73
2022/12/04 04:48:37;;;;;;;16.98;4.95;;;3.20;99.90;;;;;;4932596;29;20099;-74
2022/12/04 04:51:04;;;;;;;9.10;4.68;;;3.20;99.90;;;;;;4963063;28;20036;-75
2022/12/04 04:53:37;;;;;;;10.50;3.73;;;3.10;99.90;;;;;;4932547;29;20469;-74
2022/12/04 04:56:05;;;;;;;11.50;5.82;;;3.20;99.90;;;;;;4932713;29;20034;-74
2022/12/04 04:58:31;;;;;;;9.63;5.22;;;;;;;;;;4932498;29;20374;-74
2022/12/04 05:00:58;;;;;;;8.00;4.70;;;3.60;99.90;;;;;;4931646;29;20038;-74
2022/12/04 05:03:24;;;;;;;14.70;4.47;;;3.10;99.90;;;;;;4932450;29;20561;-74
2022/12/04 05:05:50;;;;;;;12.65;6.57;;;3.10;99.90;;;;;;4932046;29;20601;-74
2022/12/04 05:08:16;;;;;;;11.32;5.35;;;;;;;;;;4932155;29;20030;-74
2022/12/04 05:10:42;;;;;;;14.15;4.93;;;;;;;;;;4932155;29;20111;-74
2022/12/04 05:13:10;;;;;;;14.95;6.35;;;3.30;99.90;;;;;;4932177;29;20227;-75
2022/12/04 05:15:36;;;;;;;12.88;5.30;;;;;;;;;;4931495;29;20032;-75
2022/12/04 05:18:02;;;;;;;18.40;5.88;;;3.20;99.90;;;;;;4931936;29;20039;-74
2022/12/04 05:20:28;;;;;;;10.60;5.63;;;;;;;;;;4931884;29;20110;-74
2022/12/04 05:22:54;;;;;;;16.02;7.82;;;;;;;;;;4932257;29;20398;-74
2022/12/04 05:25:20;;;;;;;23.08;8.10;;;;;;;;;;4931774;29;20027;-75
2022/12/04 05:27:45;;;;;;;15.93;6.55;;;;;;;;;;4931991;29;20035;-74
2022/12/04 05:30:12;;;;;;;11.93;6.25;;;;;;;;;;4931616;29;20051;-74
2022/12/04 05:32:37;;;;;;;16.80;4.88;;;;;;;;;;4934354;29;20389;-74
2022/12/04 05:35:04;;;;;;;11.85;5.38;;;;;;;;;;4930942;29;20040;-74
2022/12/04 05:37:30;;;;;;;13.65;5.22;;;;;;;;;;4931898;29;20114;-74
2022/12/04 05:39:56;;;;;;;17.25;6.38;;;;;;;;;;4931615;29;20463;-74
2022/12/04 05:42:22;;;;;;;10.68;4.82;;;3.30;99.90;;;;;;4931814;29;20036;-74
2022/12/04 05:44:48;;;;;;;13.55;5.38;;;3.30;99.90;;;;;;4930929;29;20108;-74
2022/12/04 05:47:14;;;;;;;7.28;3.70;;;;;;;;;;4932058;29;20036;-74
2022/12/04 05:49:40;;;;;;;14.30;6.32;;;3.60;99.90;;;;;;4931872;29;20032;-75
2022/12/04 05:52:06;;;;;;;9.20;4.15;;;3.10;99.90;;;;;;4931900;29;20028;-74
2022/12/04 05:54:32;;;;;;;15.93;6.15;;;3.20;99.90;;;;;;4931489;29;20052;-75
2022/12/04 05:56:58;;;;;;;10.95;4.97;;;;;;;;;;4931037;29;20032;-74
2022/12/04 05:59:24;;;;;;;12.15;6.50;;;;;;;;;;4931191;29;20031;-74
2022/12/04 06:01:50;;;;;;;12.93;5.50;;;;;;;;;;4931534;29;20028;-74
2022/12/04 06:04:15;;;;;;;14.65;4.43;;;;;;;;;;4931857;29;20032;-74
2022/12/04 06:06:43;;;;;;;14.18;6.07;;;;;;;;;;4931764;29;20071;-74
2022/12/04 06:09:09;;;;;;;19.08;6.30;;;;;;;;;;4931466;29;20114;-74
2022/12/04 06:11:37;;;;;;;14.70;5.55;;;3.20;99.90;;;;;;4931540;29;20039;-74
2022/12/04 06:14:06;;;;;;;15.93;7.35;;;3.20;99.90;;;;;;4930770;29;20016;-74
2022/12/04 06:16:37;;;;;;;13.57;5.18;;;2.30;99.90;;;;;;4932163;29;20388;-74
2022/12/04 06:19:13;;;;;;;8.18;3.70;;;2.90;99.90;;;;;;4931006;29;20144;-75
2022/12/04 06:21:41;;;;;;;8.30;4.88;;;3.40;99.90;;;;;;4931385;29;20516;-74
2022/12/04 06:24:09;;;;;;;16.13;5.82;;;3.30;99.90;;;;;;4931080;29;20020;-74
2022/12/04 06:26:35;;;;;;;12.45;7.63;;;3.30;99.90;;;;;;4929778;29;20433;-74
2022/12/04 06:29:01;;;;;;;18.55;5.63;;;;;;;;;;4931146;29;20019;-74
2022/12/04 06:31:28;;;;;;;14.27;5.85;;;3.10;99.90;;;;;;4939316;29;20047;-74
2022/12/04 06:33:55;;;;;;;11.25;5.72;;;3.20;99.90;;;;;;4933117;29;20090;-74
2022/12/04 06:36:22;;;;;;;11.77;5.88;;;3.20;99.90;;;;;;4921710;29;20049;-74
2022/12/04 06:38:48;;;;;;;9.25;4.68;;;;;;;;;;4930647;29;20469;-74
2022/12/04 06:41:16;;;;;;;10.25;4.45;;;3.20;99.90;;;;;;4933291;29;20027;-74
2022/12/04 06:43:42;;;;;;;10.38;5.32;;;3.10;99.90;;;;;;4930253;29;20023;-74
2022/12/04 06:46:14;;;;;;;13.70;4.80;;;3.20;99.90;;;;;;4930619;29;20115;-74
2022/12/04 06:48:40;;;;;;;13.45;4.97;;;3.30;99.90;;;;;;4931023;29;20043;-75
2022/12/04 06:51:06;;;;;;;9.65;4.13;;;;;;;;;;4930477;29;20040;-75
2022/12/04 06:53:33;;;;;;;15.45;6.40;;;3.30;99.90;;;;;;4945120;28;20048;-74
2022/12/04 06:56:01;;;;;;;13.53;5.37;;;3.20;99.90;;;;;;4933142;29;20036;-74
2022/12/04 06:58:27;;;;;;;14.95;6.03;;;3.30;99.90;;;;;;4929055;29;20127;-74
2022/12/04 07:00:53;;;;;;;12.95;5.78;;;3.30;99.90;;;;;;4933259;29;20038;-75
2022/12/04 07:03:20;;;;;;;11.20;6.07;;;3.20;99.90;;;;;;4930459;29;20097;-74
2022/12/04 07:05:46;;;;;;;19.33;6.93;;;;;;;;;;4929987;28;20565;-74
2022/12/04 07:08:12;;;;;;;9.82;5.15;;;3.20;99.90;;;;;;4934588;29;20421;-75
2022/12/04 07:10:38;;;;;;;10.98;5.93;;;3.10;99.90;;;;;;4936482;29;20058;-75
2022/12/04 07:13:04;;;;;;;7.78;4.13;;;3.10;99.90;;;;;;4936598;28;20031;-74
2022/12/04 07:15:32;;;;;;;13.98;5.32;;;3.60;99.90;;;;;;4933344;29;20051;-74
2022/12/04 07:17:58;;;;;;;9.95;5.55;;;;;;;;;;4921834;29;20107;-75
2022/12/04 07:20:24;;;;;;;12.07;5.13;;;;;;;;;;4918802;29;20462;-74
2022/12/04 07:22:50;;;;;;;13.40;4.78;;;;;;;;;;4925849;29;20027;-74
2022/12/04 07:25:16;;;;;;;13.25;6.03;;;3.20;99.90;;;;;;4919035;29;20036;-75
2022/12/04 07:27:42;;;;;;;18.60;6.35;;;3.10;99.90;;;;;;4926967;29;20046;-75
2022/12/04 07:30:08;;;;;;;9.88;4.15;;;3.40;99.90;;;;;;4937461;28;20040;-75
2022/12/04 07:32:35;;;;;;;14.55;5.15;;;3.90;99.90;;;;;;4936163;29;20023;-74
2022/12/04 07:35:01;;;;;;;11.50;6.55;;;;;;;;;;4933937;29;20024;-75
2022/12/04 07:37:27;;;;;;;16.55;6.95;;;3.40;99.90;;;;;;4935394;29;20024;-74
2022/12/04 07:39:52;;;;;;;13.23;6.15;;;3.30;99.90;;;;;;4938033;28;20515;-74
2022/12/04 07:42:19;;;;;;;8.50;4.20;;;;;;;;;;4937841;29;20098;-74
2022/12/04 07:44:44;;;;;;;15.65;7.07;;;;;;;;;;4929473;29;20079;-74
2022/12/04 07:47:10;;;;;;;17.92;6.47;;;3.30;99.90;;;;;;4933386;29;20023;-75
2022/12/04 07:49:36;;;;;;;13.07;4.90;;;;;;;;;;4932063;29;20111;-74
2022/12/04 07:52:03;;;;;;;11.50;5.75;;;;;;;;;;4930394;29;20035;-74
2022/12/04 07:54:29;;;;;;;15.25;6.30;;;;;;;;;;4933351;29;20061;-75
2022/12/04 07:56:54;;;;;;;14.18;4.40;;;3.50;99.90;;;;;;4936061;29;20027;-75
2022/12/04 07:59:20;;;;;;;13.77;6.93;;;;;;;;;;4933151;29;20692;-74
2022/12/04 08:01:46;;;;;;;15.60;5.38;;;;;;;;;;4933467;29;20066;-74
2022/12/04 08:04:12;;;;;;;10.63;4.78;;;;;;;;;;4933597;29;20031;-74
2022/12/04 08:06:38;;;;;;;11.65;5.03;;;3.40;99.90;;;;;;4933388;29;20032;-74
2022/12/04 08:09:05;;;;;;;10.18;5.63;;;3.50;99.90;;;;;;4933180;29;20028;-74
2022/12/04 08:11:31;;;;;;;11.85;5.63;;;3.60;99.90;;;;;;4933417;29;20460;-74
2022/12/04 08:13:59;;;;;;;14.23;5.60;;;3.60;99.90;;;;;;4932854;29;20514;-74
2022/12/04 08:16:27;;;;;;;19.02;7.50;;;3.40;99.90;;;;;;4933502;29;20031;-74
2022/12/04 08:18:52;;;;;;;12.73;5.85;;;3.40;99.90;;;;;;4932127;29;20478;-74
2022/12/04 08:21:21;;;;;;;17.40;7.55;;;3.60;99.90;;;;;;4933171;29;20032;-75
2022/12/04 08:23:49;;;;;;;14.68;6.68;;;3.60;99.90;;;;;;4932821;29;20107;-74
2022/12/04 08:26:15;;;;;;;12.10;5.97;;;;;;;;;;4932998;28;20450;-74
2022/12/04 08:28:41;;;;;;;16.17;7.40;;;3.60;99.90;;;;;;4933176;29;20031;-75
2022/12/04 08:31:10;;;;;;;22.30;7.10;;;3.60;99.90;;;;;;4932981;29;20090;-74
2022/12/04 08:33:36;;;;;;;13.90;6.28;;;;;;;;;;4932475;29;20111;-75
2022/12/04 08:36:06;;;;;;;16.55;6.30;;;3.80;99.90;;;;;;4932700;29;20130;-74
2022/12/04 08:38:31;;;;;;;11.45;5.47;;;3.80;99.90;;;;;;4932611;29;20445;-75
2022/12/04 08:41:02;;;;;;;13.45;5.20;;;3.80;99.90;;;;;;4932952;29;20032;-74
2022/12/04 08:43:28;;;;;;;12.30;5.32;;;3.80;99.90;;;;;;4932292;29;20050;-74
2022/12/04 08:45:58;;;;;;;16.08;5.45;;;4.20;99.90;;;;;;4932646;29;20066;-74
2022/12/04 08:48:24;;;;;;;11.63;5.22;;;3.90;99.90;;;;;;4932506;29;20146;-75
2022/12/04 08:50:50;;;;;;;16.00;6.72;;;3.90;99.90;;;;;;4932612;29;20525;-75
2022/12/04 08:53:16;;;;;;;16.40;6.28;;;;;;;;;;4932165;29;20075;-74
2022/12/04 08:55:42;;;;;;;8.73;5.03;;;3.90;99.90;;;;;;4933003;29;20118;-74
2022/12/04 08:58:08;;;;;;;20.08;6.00;;;;;;;;;;4932545;29;20378;-74
2022/12/04 09:00:34;;;;;;;14.93;5.30;;;;;;;;;;4932263;29;20057;-75
2022/12/04 09:03:00;;;;;;;15.38;5.75;;;;;;;;;;4932436;29;20028;-74
2022/12/04 09:05:26;;;;;;;16.38;5.40;;;;;;;;;;4932400;29;20366;-75
2022/12/04 09:07:51;;;;;;;16.15;5.40;;;;;;;;;;4932440;29;20032;-75
2022/12/04 09:10:17;;;;;;;9.55;3.55;;;;;;;;;;4932206;29;20055;-74
2022/12/04 09:12:43;;;;;;;18.65;6.40;;;;;;;;;;4932373;29;20075;-75
2022/12/04 09:15:10;;;;;;;9.18;4.88;;;4.20;99.90;;;;;;4934094;29;20040;-75
2022/12/04 09:17:36;;;;;;;11.95;4.90;;;;;;;;;;4932173;29;20131;-75
2022/12/04 09:20:03;;;;;;;9.63;4.97;;;4.30;99.90;;;;;;4932278;29;20031;-75
2022/12/04 09:22:28;;;;;;;18.05;5.47;;;4.20;99.90;;;;;;4931940;29;20028;-74
2022/12/04 09:24:54;;;;;;;11.73;4.82;;;4.00;99.90;;;;;;4932009;29;20034;-74
2022/12/04 09:27:20;;;;;;;10.57;4.03;;;;;;;;;;4932132;29;20031;-74
2022/12/04 09:29:45;;;;;;;11.35;5.22;;;4.30;99.90;;;;;;4931843;29;20024;-75
2022/12/04 09:32:11;;;;;;;13.48;6.20;;;;;;;;;;4931879;29;20059;-75
2022/12/04 09:34:37;;;;;;;18.83;6.05;;;4.30;99.90;;;;;;4931784;29;20042;-74
2022/12/04 09:37:02;;;;;;;15.77;5.93;;;4.40;99.90;;;;;;4931409;29;20028;-74
2022/12/04 09:39:28;;;;;;;13.20;6.18;;;4.30;99.90;;;;;;4931951;29;20032;-75
2022/12/04 09:42:19;;;;;;;15.30;5.60;;;4.00;99.90;;;;;;4931577;29;20083;-74
2022/12/04 09:45:09;;;;;;;13.10;4.95;;;4.30;99.90;;;;;;4931083;29;20036;-74
2022/12/04 09:47:42;;;;;;;13.23;6.55;;;4.30;99.90;;;;;;4931641;29;20032;-74
2022/12/04 09:50:25;;;;;;;13.35;5.15;;;4.20;99.90;;;;;;4931159;29;20062;-74
2022/12/04 09:53:02;;;;;;;17.27;7.18;;;4.20;99.90;;;;;;4931491;29;20507;-74
2022/12/04 09:55:30;;;;;;;17.77;6.60;;;4.20;99.90;;;;;;4931307;29;20028;-75
2022/12/04 09:58:00;;;;;;;14.35;6.20;;;4.10;99.90;;;;;;4931555;29;20043;-75
2022/12/04 10:00:28;;;;;;;14.40;5.97;;;4.10;99.90;;;;;;4931592;29;20027;-74
2022/12/04 10:02:56;;;;;;;;;;;4.10;99.90;;;;;;4931872;29;20031;-74
2022/12/04 10:05:39;;;;;;;17.70;6.75;;;4.00;99.90;;;;;;4931343;29;19918;-74
2022/12/04 10:08:08;;;;;;;17.58;5.90;;;4.30;99.90;;;;;;4931427;29;20059;-74
2022/12/04 10:10:49;;;;;;;13.05;6.30;;;4.40;99.90;;;;;;4931282;29;20044;-75
2022/12/04 10:13:39;;;;;;;17.50;7.30;;;4.50;99.90;;;;;;4931252;29;20024;-74
2022/12/04 10:16:15;;;;;;;12.43;6.32;;;4.50;99.90;;;;;;4931392;29;20036;-75
2022/12/04 10:19:10;;;;;;;17.08;7.18;;;4.80;99.90;;;;;;4931038;29;20030;-74
2022/12/04 10:21:38;;;;;;;17.10;7.70;;;7.20;99.90;;;;;;4928042;28;20115;-74
2022/12/04 10:24:18;;;;;;;20.40;8.00;;;5.20;99.90;;;;;;4961801;28;20028;-75
2022/12/04 10:26:46;;;;;;;18.38;8.27;;;5.10;99.90;;;;;;4931113;29;20028;-74
2022/12/04 10:29:33;;;;;;;16.67;7.05;;;5.30;99.90;;;;;;4931361;29;20449;-75
2022/12/04 10:32:19;;;;;;;14.07;6.80;;;5.50;99.90;;;;;;4930673;29;20032;-75
2022/12/04 10:34:47;;;;;;;16.80;5.80;;;5.00;99.90;;;;;;4931015;29;20042;-75
2022/12/04 10:37:13;;;;;;;17.13;6.63;;;4.80;99.90;;;;;;4931256;29;20031;-74
2022/12/04 10:40:04;;;;;;;14.60;6.63;;;4.90;99.90;;;;;;4931378;29;20031;-75
2022/12/04 10:42:41;;;;;;;20.50;6.63;;;4.60;99.90;;;;;;4931731;29;20080;-74
2022/12/04 10:45:09;;;;;;;22.25;5.75;;;5.50;99.90;;;;;;4934465;29;20449;-74
2022/12/04 10:47:35;;;;;;;20.77;6.43;;;;;;;;;;4933512;29;20098;-74
2022/12/04 10:50:14;;;;;;;21.38;6.80;;;5.90;99.90;;;;;;4934412;29;20039;-75
2022/12/04 10:52:40;;;;;;;20.08;6.40;;;5.50;99.90;;;;;;4934617;29;20566;-75
2022/12/04 10:55:06;;;;;;;16.35;6.70;;;;;;;;;;4934984;29;20154;-74
2022/12/04 10:57:44;;;;;;;19.48;6.43;;;5.50;99.90;;;;;;4934817;29;20040;-74
2022/12/04 11:00:34;;;;;;;12.63;6.10;;;5.30;99.90;;;;;;4934572;29;20024;-75
2022/12/04 11:03:08;;;;;;;11.35;5.35;;;5.40;99.90;;;;;;4934336;29;20019;-74
2022/12/04 11:05:45;;;;;;;17.27;6.95;;;5.20;99.90;;;;;;4934604;29;20513;-75
2022/12/04 11:08:23;;;;;;;19.10;6.63;;;5.20;99.90;;;;;;4934862;29;20797;-74
2022/12/04 11:10:58;;;;;;;16.92;7.10;;;5.30;99.90;;;;;;4936766;29;20138;-74
2022/12/04 11:13:24;;;;;;;14.18;6.22;;;;;;;;;;4933128;29;20071;-74
2022/12/04 11:15:52;;;;;;;14.10;6.43;;;5.20;99.90;;;;;;4933872;29;20111;-75
2022/12/04 11:18:25;;;;;;;15.57;6.03;;;5.10;99.90;;;;;;4933586;29;20054;-74
2022/12/04 11:20:51;;;;;;;14.32;7.05;;;;;;;;;;4934268;29;20027;-75
2022/12/04 11:23:17;;;;;;;20.80;6.82;;;;;;;;;;4934276;29;20024;-74
2022/12/04 11:25:52;;;;;;;14.10;6.30;;;4.80;99.90;;;;;;4934181;29;20036;-74
2022/12/04 11:28:22;;;;;;;13.85;6.32;;;4.60;99.90;;;;;;4934221;29;20090;-74
2022/12/04 11:31:00;;;;;;;14.50;5.38;;;4.50;99.90;;;;;;4934057;29;20043;-74
2022/12/04 11:33:41;;;;;;;15.98;8.23;;;4.70;99.90;;;;;;4933991;29;20531;-74
2022/12/04 11:36:33;;;;;;;15.93;6.68;;;4.60;99.90;;;;;;4934375;29;20086;-74
2022/12/04 11:39:06;;;;;;;14.85;6.93;;;4.40;99.90;;;;;;4930714;28;20035;-74
2022/12/04 11:41:33;;;;;;;8.88;4.25;;;4.30;99.90;;;;;;4934026;29;20489;-74
2022/12/04 11:43:59;;;;;;;17.65;5.70;;;4.40;99.90;;;;;;4933637;29;20501;-75
2022/12/04 11:46:27;;;;;;;14.60;6.55;;;4.50;99.90;;;;;;4933550;29;20066;-74
2022/12/04 11:48:53;;;;;;;18.42;6.50;;;;;;;;;;4933652;29;20051;-75
2022/12/04 11:51:52;;;;;;;9.55;3.50;;;4.50;99.90;;;;;;4933979;29;20052;-74
2022/12/04 11:54:28;;;;;;;10.85;4.90;;;4.90;99.90;;;;;;4932408;29;20048;-74
2022/12/04 11:57:28;;;;;;;12.40;3.73;;;4.90;99.90;;;;;;4934143;29;20047;-74
2022/12/04 12:00:14;;;;;;;8.30;4.28;;;5.00;99.90;;;;;;4933747;29;20031;-75
2022/12/04 12:03:01;;;;;;;12.63;4.70;;;4.80;99.90;;;;;;4933342;29;20102;-75
2022/12/04 12:05:45;;;;;;;;;;;5.10;99.90;;;;;;4934048;29;20514;-75
2022/12/04 12:08:28;;;;;;;10.15;3.92;;;5.00;99.90;;;;;;4925952;29;20384;-75
2022/12/04 12:11:23;;;;;;;13.68;5.15;;;4.90;99.90;;;;;;4953778;28;20087;-74
2022/12/04 12:14:07;;;;;;;7.97;4.85;;;4.90;99.90;;;;;;4932599;29;20042;-74
2022/12/04 12:16:48;;;;;;;4.95;3.42;;;4.90;99.90;;;;;;4933626;29;20035;-74
2022/12/04 12:19:14;;;;;;;8.20;3.28;;;;;;;;;;4932832;29;20020;-75
2022/12/04 12:22:10;;;;;;;11.68;4.22;;;5.00;99.90;;;;;;4933414;29;20024;-75
2022/12/04 12:25:00;;;;;;;8.90;4.28;;;4.70;99.90;;;;;;4933613;29;20051;-74
2022/12/04 12:27:53;;;;;;;10.48;3.78;;;4.70;99.90;;;;;;4933750;29;20079;-74
2022/12/04 12:30:20;;;;;;;8.05;4.25;;;4.70;99.90;;;;;;4930266;29;20059;-77
2022/12/04 12:32:58;;;;;;;;;;;5.40;99.90;;;;;;4931631;29;20028;-78
2022/12/04 12:35:43;;;;;;;8.48;4.45;;;4.60;99.90;;;;;;4931994;29;19911;-77
2022/12/04 12:38:20;;;;;;;8.52;4.38;;;4.50;99.90;;;;;;4931409;29;20035;-79
2022/12/04 12:41:05;;;;;;;15.25;5.25;;;4.50;99.90;;;;;;4931577;29;20563;-76
2022/12/04 12:43:34;;;;;;;7.82;4.70;;;4.50;99.90;;;;;;4930342;29;20493;-80
2022/12/04 12:46:29;;;;;;;10.68;4.40;;;4.50;99.90;;;;;;4930858;29;20107;-82
2022/12/04 12:49:00;;;;;;;10.93;4.68;;;4.30;99.90;;;;;;4931799;29;20643;-82
2022/12/04 12:52:01;;;;;;;10.45;4.38;;;4.40;99.90;;;;;;4931177;29;20090;-82
2022/12/04 12:54:41;;;;;;;14.45;5.20;;;5.00;99.90;;;;;;4926462;28;20055;-84
2022/12/04 12:57:27;;;;;;;10.57;5.25;;;4.60;99.90;;;;;;4931473;29;20122;-79
2022/12/04 13:00:03;;;;;;;8.70;4.47;;;4.50;99.90;;;;;;4921671;29;20036;-84
2022/12/04 13:02:39;;;;;;;8.32;4.45;;;4.50;99.90;;;;;;4931007;28;20540;-78
2022/12/04 13:05:08;;;;;;;12.07;4.07;;;4.50;99.90;;;;;;4930863;29;20059;-78
2022/12/04 13:07:46;;;;;;;9.15;3.72;;;4.80;99.90;;;;;;4921594;29;20024;-76
2022/12/04 13:10:19;;;;;;;8.90;3.63;;;4.60;99.90;;;;;;4933287;29;20031;-78
2022/12/04 13:12:59;;;;;;;9.45;3.85;;;4.60;99.90;;;;;;4928776;29;20541;-76
2022/12/04 13:15:50;;;;;;;9.65;4.13;;;4.60;99.90;;;;;;4926255;29;20020;-75
2022/12/04 13:18:48;;;;;;;7.55;3.97;;;4.60;99.90;;;;;;4929182;29;20043;-75
2022/12/04 13:21:36;;;;;;;5.75;3.25;;;4.60;99.90;;;;;;4908147;29;20063;-76
2022/12/04 13:24:30;;;;;;;12.13;3.58;;;4.60;99.90;;;;;;4903310;29;20079;-76
2022/12/04 13:27:11;;;;;;;6.13;3.00;;;4.60;99.90;;;;;;4899625;29;20039;-77
2022/12/04 13:29:54;;;;;;;8.45;3.63;;;5.40;99.90;;;;;;4899374;29;20087;-76
2022/12/04 13:32:47;;;;;;;8.90;3.63;;;5.00;99.90;;;;;;4907806;29;20108;-79
2022/12/04 13:35:45;;;;;;;5.38;3.25;;;5.20;99.90;;;;;;4906419;29;20075;-79
2022/12/04 13:38:19;;;;;;;7.60;3.13;;;5.20;99.90;;;;;;4900381;29;20035;-80
2022/12/04 13:41:00;;;;;;;11.90;4.47;;;6.60;99.90;;;;;;4906608;29;20486;-79
2022/12/04 13:43:40;;;;;;;10.48;3.78;;;5.30;99.90;;;;;;4889807;29;20127;-79
2022/12/04 13:46:21;;;;;;;7.90;4.32;;;6.00;99.90;;;;;;4883001;29;20529;-78
2022/12/04 13:48:47;;;;;;;9.40;3.63;;;5.60;99.90;;;;;;4906132;29;20032;-78
2022/12/04 13:51:13;;;;;;;3.47;2.67;;;;;;;;;;4906628;29;20051;-79
2022/12/04 13:53:40;;;;;;;4.22;2.65;;;6.30;99.90;;;;;;4906059;29;20056;-79